Eleonora E — MEDD4 — position and weather

sailwx.info

Track history (hours):
 
Tides and Currents Weather Stations Pressure Air Temp Water Temp Dewpoint Dewpoint Depression Visibility Wind Speed Wind Dir Waves Ship Positions

Eleonora E

Last reported at 2015-Jun-30 06:19 UTC. Time now 2015-Jul-01 11:58 UTC.
Position N 50°46' W 001°18'.

Length 41 m; draft 5.2 m.

Type: Sailing vessel. MMSI: 235008680.

Date/timePositionNaut miles runAvg speedWind from/ knotsBaromVisibWave heightAir tempDewpointWater temp
2015-Jun-30 06:19N 50°46' W 001°18'0 0.0
2015-Jun-30 05:13N 50°46' W 001°18'0 0.0
2015-Jun-30 04:33N 50°46' W 001°18'  
2015-Jun-27 13:33N 50°47' W 001°18'5 4.6
2015-Jun-27 12:33N 50°46' W 001°11'6 6.4
2015-Jun-27 11:33N 50°42' W 001°03'11 2.0
2015-Jun-27 06:07N 50°46' W 001°19'1 1.7
2015-Jun-27 05:33N 50°47' W 001°17'2 0.1
2015-Jun-26 09:30N 50°46' W 001°20'1 0.1
2015-Jun-25 16:26N 50°46' W 001°18'1 0.7
2015-Jun-25 15:11N 50°46' W 001°19'1 0.6
2015-Jun-25 13:26N 50°46' W 001°21'2 2.5
2015-Jun-25 12:28N 50°46' W 001°17'4 4.8
2015-Jun-25 11:33N 50°46' W 001°10'0 0.4
2015-Jun-25 10:33N 50°46' W 001°10'2 2.5
2015-Jun-25 09:33N 50°46' W 001°14'3 1.9
2015-Jun-25 08:08N 50°46' W 001°18'  
2015-Jun-21 20:20N 50°46' W 001°18'0 0.0
2015-Jun-21 19:33N 50°46' W 001°18'0 0.0
2015-Jun-21 18:32N 50°46' W 001°18'0 0.0
2015-Jun-21 17:33N 50°46' W 001°18'0 0.0
2015-Jun-21 16:32N 50°46' W 001°18'0 0.0
2015-Jun-21 15:32N 50°46' W 001°18'0 0.0
2015-Jun-21 14:32N 50°46' W 001°18'0 0.0
2015-Jun-21 13:33N 50°46' W 001°18'0 0.0
2015-Jun-21 12:32N 50°46' W 001°18'0 0.0
2015-Jun-21 11:33N 50°46' W 001°18'0 0.0
2015-Jun-21 10:32N 50°46' W 001°18'0 0.0
2015-Jun-21 09:32N 50°46' W 001°18'0 0.0
2015-Jun-21 08:32N 50°46' W 001°18'0 0.0
2015-Jun-21 07:33N 50°46' W 001°18'0 0.0
2015-Jun-21 06:32N 50°46' W 001°18'0 0.0
2015-Jun-21 05:32N 50°46' W 001°18'0 0.0
2015-Jun-21 04:32N 50°46' W 001°18'0 0.0
2015-Jun-21 03:32N 50°46' W 001°18'0 0.0
2015-Jun-21 02:33N 50°46' W 001°18'0 0.0
2015-Jun-21 01:33N 50°46' W 001°18'0 0.0
2015-Jun-21 00:33N 50°46' W 001°18'0 0.0
2015-Jun-20 23:32N 50°46' W 001°18'0 0.0
2015-Jun-20 22:34N 50°46' W 001°18'0 0.0
2015-Jun-20 21:33N 50°46' W 001°18'0 0.0
2015-Jun-20 20:32N 50°46' W 001°18'0 0.0
2015-Jun-20 19:32N 50°46' W 001°18'0 0.0
2015-Jun-20 18:32N 50°46' W 001°18'0 0.0
2015-Jun-20 17:33N 50°46' W 001°18'  
Track history (hours):
 
Tides and Currents Weather Stations Pressure Air Temp Water Temp Dewpoint Dewpoint Depression Visibility Wind Speed Wind Dir Waves Ship Positions

Eleonora E

Last reported at 2015-Jun-30 06:19 UTC. Time now 2015-Jul-01 11:58 UTC.
Position N 50°46' W 001°18'.

Length 41 m; draft 5.2 m.

Type: Sailing vessel. MMSI: 235008680.

Date/timePositionNaut miles runAvg speedWind from/ knotsBaromVisibWave heightAir tempDewpointWater temp
2015-Jun-30 06:19N 50°46' W 001°18'0 0.0
2015-Jun-30 05:13N 50°46' W 001°18'0 0.0
2015-Jun-30 04:33N 50°46' W 001°18'  
2015-Jun-27 13:33N 50°47' W 001°18'5 4.6
2015-Jun-27 12:33N 50°46' W 001°11'6 6.4
2015-Jun-27 11:33N 50°42' W 001°03'11 2.0
2015-Jun-27 06:07N 50°46' W 001°19'1 1.7
2015-Jun-27 05:33N 50°47' W 001°17'2 0.1
2015-Jun-26 09:30N 50°46' W 001°20'1 0.1
2015-Jun-25 16:26N 50°46' W 001°18'1 0.7
2015-Jun-25 15:11N 50°46' W 001°19'1 0.6
2015-Jun-25 13:26N 50°46' W 001°21'2 2.5
2015-Jun-25 12:28N 50°46' W 001°17'4 4.8
2015-Jun-25 11:33N 50°46' W 001°10'0 0.4
2015-Jun-25 10:33N 50°46' W 001°10'2 2.5
2015-Jun-25 09:33N 50°46' W 001°14'3 1.9
2015-Jun-25 08:08N 50°46' W 001°18'  
2015-Jun-21 20:20N 50°46' W 001°18'0 0.0
2015-Jun-21 19:33N 50°46' W 001°18'0 0.0
2015-Jun-21 18:32N 50°46' W 001°18'0 0.0
2015-Jun-21 17:33N 50°46' W 001°18'0 0.0
2015-Jun-21 16:32N 50°46' W 001°18'0 0.0
2015-Jun-21 15:32N 50°46' W 001°18'0 0.0
2015-Jun-21 14:32N 50°46' W 001°18'0 0.0
2015-Jun-21 13:33N 50°46' W 001°18'0 0.0
2015-Jun-21 12:32N 50°46' W 001°18'0 0.0
2015-Jun-21 11:33N 50°46' W 001°18'0 0.0
2015-Jun-21 10:32N 50°46' W 001°18'0 0.0
2015-Jun-21 09:32N 50°46' W 001°18'0 0.0
2015-Jun-21 08:32N 50°46' W 001°18'0 0.0
2015-Jun-21 07:33N 50°46' W 001°18'0 0.0
2015-Jun-21 06:32N 50°46' W 001°18'0 0.0
2015-Jun-21 05:32N 50°46' W 001°18'0 0.0
2015-Jun-21 04:32N 50°46' W 001°18'0 0.0
2015-Jun-21 03:32N 50°46' W 001°18'0 0.0
2015-Jun-21 02:33N 50°46' W 001°18'0 0.0
2015-Jun-21 01:33N 50°46' W 001°18'0 0.0
2015-Jun-21 00:33N 50°46' W 001°18'0 0.0
2015-Jun-20 23:32N 50°46' W 001°18'0 0.0
2015-Jun-20 22:34N 50°46' W 001°18'0 0.0
2015-Jun-20 21:33N 50°46' W 001°18'0 0.0
2015-Jun-20 20:32N 50°46' W 001°18'0 0.0
2015-Jun-20 19:32N 50°46' W 001°18'0 0.0
2015-Jun-20 18:32N 50°46' W 001°18'0 0.0
2015-Jun-20 17:33N 50°46' W 001°18'  

Dump ship's entire track history